sensor_id;sensor_type;location;lat;lon;timestamp;pressure;altitude;pressure_sealevel;temperature;humidity
62864;BME280;48954;59.950;11.014;2023-09-18T01:58:59;100104.84;;;7.18;81.37
62864;BME280;48954;59.950;11.014;2023-09-18T02:02:09;100099.02;;;7.18;81.44
62864;BME280;48954;59.950;11.014;2023-09-18T02:22:39;100082.34;;;7.24;81.53
62864;BME280;48954;59.950;11.014;2023-09-18T05:24:08;99827.68;;;8.32;83.74
62864;BME280;48954;59.950;11.014;2023-09-18T05:26:49;99825.89;;;8.34;83.68
62864;BME280;48954;59.950;11.014;2023-09-18T05:29:25;99827.95;;;8.37;83.89
62864;BME280;48954;59.950;11.014;2023-09-18T05:32:06;99819.48;;;8.39;83.80
62864;BME280;48954;59.950;11.014;2023-09-18T05:34:48;99811.70;;;8.41;83.95
62864;BME280;48954;59.950;11.014;2023-09-18T05:37:32;99810.90;;;8.40;83.87
62864;BME280;48954;59.950;11.014;2023-09-18T05:40:15;99811.86;;;8.41;84.00
62864;BME280;48954;59.950;11.014;2023-09-18T05:42:56;99821.62;;;8.45;83.92
62864;BME280;48954;59.950;11.014;2023-09-18T05:45:36;99812.86;;;8.46;84.03
62864;BME280;48954;59.950;11.014;2023-09-18T05:48:21;99823.44;;;8.48;84.12
62864;BME280;48954;59.950;11.014;2023-09-18T05:51:12;99813.38;;;8.49;84.14
62864;BME280;48954;59.950;11.014;2023-09-18T06:02:40;99810.23;;;8.56;84.14
62864;BME280;48954;59.950;11.014;2023-09-18T06:05:21;99810.42;;;8.58;84.28
62864;BME280;48954;59.950;11.014;2023-09-18T06:08:09;99810.73;;;8.60;84.18
62864;BME280;48954;59.950;11.014;2023-09-18T06:13:59;99797.58;;;8.63;84.30
62864;BME280;48954;59.950;11.014;2023-09-18T06:39:11;99752.23;;;8.72;84.58
62864;BME280;48954;59.950;11.014;2023-09-18T06:42:13;99746.76;;;8.71;84.67
62864;BME280;48954;59.950;11.014;2023-09-18T06:45:06;99733.62;;;8.72;84.71
62864;BME280;48954;59.950;11.014;2023-09-18T06:50:48;99716.77;;;8.72;84.91
62864;BME280;48954;59.950;11.014;2023-09-18T06:53:30;99712.91;;;8.74;85.06
62864;BME280;48954;59.950;11.014;2023-09-18T06:56:11;99719.98;;;8.75;85.25
62864;BME280;48954;59.950;11.014;2023-09-18T06:58:52;99713.05;;;8.76;85.25
62864;BME280;48954;59.950;11.014;2023-09-18T07:01:33;99708.36;;;8.76;85.31
62864;BME280;48954;59.950;11.014;2023-09-18T07:04:24;99708.36;;;8.79;85.55
62864;BME280;48954;59.950;11.014;2023-09-18T07:10:29;99694.73;;;8.79;85.62
62864;BME280;48954;59.950;11.014;2023-09-18T07:13:30;99663.59;;;8.80;85.70
62864;BME280;48954;59.950;11.014;2023-09-18T07:16:11;99654.92;;;8.81;85.94
62864;BME280;48954;59.950;11.014;2023-09-18T07:18:54;99646.39;;;8.82;86.08
62864;BME280;48954;59.950;11.014;2023-09-18T07:24:24;99627.11;;;8.88;86.33
62864;BME280;48954;59.950;11.014;2023-09-18T07:27:06;99629.10;;;8.92;86.50
62864;BME280;48954;59.950;11.014;2023-09-18T07:29:48;99620.59;;;8.96;86.74
62864;BME280;48954;59.950;11.014;2023-09-18T07:32:28;99614.38;;;9.01;86.81
62864;BME280;48954;59.950;11.014;2023-09-18T07:35:09;99608.39;;;9.05;86.93
62864;BME280;48954;59.950;11.014;2023-09-18T07:37:50;99626.89;;;9.09;87.01
62864;BME280;48954;59.950;11.014;2023-09-18T07:40:51;99636.15;;;9.13;87.08
62864;BME280;48954;59.950;11.014;2023-09-18T07:47:01;99635.14;;;9.21;87.31
62864;BME280;48954;59.950;11.014;2023-09-18T07:49:51;99621.11;;;9.25;87.41
62864;BME280;48954;59.950;11.014;2023-09-18T07:52:59;99604.33;;;9.24;87.30
62864;BME280;48954;59.950;11.014;2023-09-18T07:55:40;99602.02;;;9.32;87.40
62864;BME280;48954;59.950;11.014;2023-09-18T07:58:41;99595.25;;;9.35;87.60
62864;BME280;48954;59.950;11.014;2023-09-18T08:01:23;99596.73;;;9.38;87.52
62864;BME280;48954;59.950;11.014;2023-09-18T08:04:03;99599.64;;;9.42;87.64
62864;BME280;48954;59.950;11.014;2023-09-18T08:06:44;99603.65;;;9.45;87.65
62864;BME280;48954;59.950;11.014;2023-09-18T08:09:24;99597.21;;;9.48;87.85
62864;BME280;48954;59.950;11.014;2023-09-18T08:15:02;99610.05;;;9.57;87.93
62864;BME280;48954;59.950;11.014;2023-09-18T08:18:05;99617.36;;;9.60;87.99
62864;BME280;48954;59.950;11.014;2023-09-18T08:29:52;99610.94;;;9.71;88.02
62864;BME280;48954;59.950;11.014;2023-09-18T08:36:31;99591.02;;;9.79;88.25
62864;BME280;48954;59.950;11.014;2023-09-18T08:39:34;99587.61;;;9.83;88.30
62864;BME280;48954;59.950;11.014;2023-09-18T08:42:16;99584.55;;;9.88;88.47
62864;BME280;48954;59.950;11.014;2023-09-18T08:44:58;99568.52;;;9.91;88.55
62864;BME280;48954;59.950;11.014;2023-09-18T08:47:59;99560.99;;;9.93;88.56
62864;BME280;48954;59.950;11.014;2023-09-18T08:50:42;99566.00;;;9.96;88.51
62864;BME280;48954;59.950;11.014;2023-09-18T08:53:44;99565.84;;;9.99;88.45
62864;BME280;48954;59.950;11.014;2023-09-18T09:03:17;99554.88;;;10.12;88.68
62864;BME280;48954;59.950;11.014;2023-09-18T09:06:20;99549.36;;;10.16;88.70
62864;BME280;48954;59.950;11.014;2023-09-18T09:09:25;99553.20;;;10.21;88.66
62864;BME280;48954;59.950;11.014;2023-09-18T09:12:07;99539.55;;;10.25;88.77
62864;BME280;48954;59.950;11.014;2023-09-18T09:15:05;99532.86;;;10.29;88.91
62864;BME280;48954;59.950;11.014;2023-09-18T09:29:59;99513.63;;;10.50;88.70
62864;BME280;48954;59.950;11.014;2023-09-18T09:33:10;99501.50;;;10.54;88.78
62864;BME280;48954;59.950;11.014;2023-09-18T09:35:56;99496.55;;;10.57;88.76
62864;BME280;48954;59.950;11.014;2023-09-18T09:39:24;99498.58;;;10.60;88.65
62864;BME280;48954;59.950;11.014;2023-09-18T10:14:33;99427.10;;;10.76;88.17
62864;BME280;48954;59.950;11.014;2023-09-18T10:31:55;99399.40;;;10.69;87.96
62864;BME280;48954;59.950;11.014;2023-09-18T10:37:58;99403.02;;;10.66;88.03
62864;BME280;48954;59.950;11.014;2023-09-18T10:40:39;99390.13;;;10.64;88.10
62864;BME280;48954;59.950;11.014;2023-09-18T10:49:35;99378.79;;;10.58;87.93
62864;BME280;48954;59.950;11.014;2023-09-18T11:28:48;99319.38;;;10.41;88.42
62864;BME280;48954;59.950;11.014;2023-09-18T11:32:13;99319.13;;;10.41;88.53
62864;BME280;48954;59.950;11.014;2023-09-18T11:35:33;99313.38;;;10.40;88.55
62864;BME280;48954;59.950;11.014;2023-09-18T11:39:07;99304.25;;;10.39;88.73
62864;BME280;48954;59.950;11.014;2023-09-18T11:42:34;99304.64;;;10.38;88.57
62864;BME280;48954;59.950;11.014;2023-09-18T13:09:41;99140.94;;;10.17;90.31
62864;BME280;48954;59.950;11.014;2023-09-18T13:12:38;99132.74;;;10.15;90.25
62864;BME280;48954;59.950;11.014;2023-09-18T13:21:51;99106.69;;;10.19;90.33
62864;BME280;48954;59.950;11.014;2023-09-18T13:25:18;99099.27;;;10.21;90.48
62864;BME280;48954;59.950;11.014;2023-09-18T13:28:13;99089.88;;;10.23;90.59
62864;BME280;48954;59.950;11.014;2023-09-18T13:37:01;99054.09;;;10.25;90.42
62864;BME280;48954;59.950;11.014;2023-09-18T13:39:44;99053.07;;;10.25;90.52
62864;BME280;48954;59.950;11.014;2023-09-18T13:48:38;99019.93;;;10.25;90.65
62864;BME280;48954;59.950;11.014;2023-09-18T13:51:28;99020.48;;;10.27;90.64
62864;BME280;48954;59.950;11.014;2023-09-18T13:54:26;99021.61;;;10.28;90.79
62864;BME280;48954;59.950;11.014;2023-09-18T14:12:09;98957.90;;;10.42;91.00
62864;BME280;48954;59.950;11.014;2023-09-18T14:15:23;98950.23;;;10.43;91.01
62864;BME280;48954;59.950;11.014;2023-09-18T14:18:28;98936.91;;;10.46;91.11
62864;BME280;48954;59.950;11.014;2023-09-18T14:21:59;98925.30;;;10.48;91.02
62864;BME280;48954;59.950;11.014;2023-09-18T14:25:09;98912.21;;;10.50;91.22
62864;BME280;48954;59.950;11.014;2023-09-18T14:28:12;98899.09;;;10.53;91.17
62864;BME280;48954;59.950;11.014;2023-09-18T14:37:34;98869.31;;;10.59;91.33
62864;BME280;48954;59.950;11.014;2023-09-18T14:41:00;98847.81;;;10.62;91.56
62864;BME280;48954;59.950;11.014;2023-09-18T16:20:13;98594.29;;;11.60;92.17
62864;BME280;48954;59.950;11.014;2023-09-18T16:29:17;98582.27;;;11.64;92.22
62864;BME280;48954;59.950;11.014;2023-09-18T16:32:02;98593.04;;;11.66;92.27
62864;BME280;48954;59.950;11.014;2023-09-18T16:35:10;98598.16;;;11.68;92.16
62864;BME280;48954;59.950;11.014;2023-09-18T16:38:31;98601.59;;;11.70;92.10
62864;BME280;48954;59.950;11.014;2023-09-18T16:41:12;98585.46;;;11.71;92.11
62864;BME280;48954;59.950;11.014;2023-09-18T16:43:58;98580.19;;;11.73;92.10
62864;BME280;48954;59.950;11.014;2023-09-18T16:46:39;98573.90;;;11.74;92.15
62864;BME280;48954;59.950;11.014;2023-09-18T16:49:16;98569.67;;;11.77;92.12
62864;BME280;48954;59.950;11.014;2023-09-18T16:52:04;98555.74;;;11.76;92.10
62864;BME280;48954;59.950;11.014;2023-09-18T16:54:46;98561.42;;;11.80;92.22
62864;BME280;48954;59.950;11.014;2023-09-18T16:57:21;98545.52;;;11.81;92.11
62864;BME280;48954;59.950;11.014;2023-09-18T17:00:32;98544.23;;;11.81;92.10
62864;BME280;48954;59.950;11.014;2023-09-18T17:03:19;98535.57;;;11.83;92.17
62864;BME280;48954;59.950;11.014;2023-09-18T17:09:08;98514.95;;;11.85;92.20
62864;BME280;48954;59.950;11.014;2023-09-18T17:11:58;98512.42;;;11.87;92.26
62864;BME280;48954;59.950;11.014;2023-09-18T17:14:53;98497.31;;;11.89;92.36
62864;BME280;48954;59.950;11.014;2023-09-18T17:17:35;98495.51;;;11.90;92.39
62864;BME280;48954;59.950;11.014;2023-09-18T17:20:41;98482.36;;;11.92;92.56
62864;BME280;48954;59.950;11.014;2023-09-18T17:29:48;98462.02;;;11.99;92.61
62864;BME280;48954;59.950;11.014;2023-09-18T17:32:30;98456.57;;;12.01;92.80
62864;BME280;48954;59.950;11.014;2023-09-18T17:35:15;98439.40;;;12.04;92.91
62864;BME280;48954;59.950;11.014;2023-09-18T17:40:44;98424.40;;;12.09;92.86
62864;BME280;48954;59.950;11.014;2023-09-18T17:43:20;98423.05;;;12.12;92.97
62864;BME280;48954;59.950;11.014;2023-09-18T17:53:20;98388.89;;;12.24;93.37
62864;BME280;48954;59.950;11.014;2023-09-18T17:56:23;98385.80;;;12.27;93.49
62864;BME280;48954;59.950;11.014;2023-09-18T18:30:29;98291.02;;;12.49;93.77
62864;BME280;48954;59.950;11.014;2023-09-18T18:33:13;98278.56;;;12.51;93.74
62864;BME280;48954;59.950;11.014;2023-09-18T18:36:03;98275.86;;;12.52;93.74
62864;BME280;48954;59.950;11.014;2023-09-18T20:46:47;98105.63;;;13.92;96.34
62864;BME280;48954;59.950;11.014;2023-09-18T20:55:41;98091.92;;;14.01;96.32
62864;BME280;48954;59.950;11.014;2023-09-18T20:59:04;98085.54;;;14.03;96.35
62864;BME280;48954;59.950;11.014;2023-09-18T22:34:09;98014.30;;;14.81;96.49
62864;BME280;48954;59.950;11.014;2023-09-18T22:55:41;97986.11;;;14.83;96.20
62864;BME280;48954;59.950;11.014;2023-09-18T22:58:41;97985.80;;;14.82;96.29
62864;BME280;48954;59.950;11.014;2023-09-18T23:01:21;97982.18;;;14.81;96.25
62864;BME280;48954;59.950;11.014;2023-09-18T23:04:24;97977.83;;;14.82;96.25
62864;BME280;48954;59.950;11.014;2023-09-18T23:07:06;97974.13;;;14.81;96.20
62864;BME280;48954;59.950;11.014;2023-09-18T23:09:48;97962.88;;;14.82;96.24
62864;BME280;48954;59.950;11.014;2023-09-18T23:12:33;97955.66;;;14.83;96.32
62864;BME280;48954;59.950;11.014;2023-09-18T23:15:19;97940.21;;;14.84;96.38
62864;BME280;48954;59.950;11.014;2023-09-18T23:21:25;97919.01;;;14.85;96.40
62864;BME280;48954;59.950;11.014;2023-09-18T23:29:57;97916.23;;;14.86;96.36
62864;BME280;48954;59.950;11.014;2023-09-18T23:32:41;97915.09;;;14.87;96.30
62864;BME280;48954;59.950;11.014;2023-09-18T23:35:22;97913.08;;;14.88;96.36
62864;BME280;48954;59.950;11.014;2023-09-18T23:38:05;97909.81;;;14.89;96.38
62864;BME280;48954;59.950;11.014;2023-09-18T23:40:47;97907.98;;;14.91;96.26
62864;BME280;48954;59.950;11.014;2023-09-18T23:43:14;97905.81;;;14.92;96.36
62864;BME280;48954;59.950;11.014;2023-09-18T23:45:51;97904.26;;;14.93;96.38
62864;BME280;48954;59.950;11.014;2023-09-18T23:48:19;97899.25;;;14.94;96.41
62864;BME280;48954;59.950;11.014;2023-09-18T23:50:47;97892.27;;;14.95;96.41
62864;BME280;48954;59.950;11.014;2023-09-18T23:53:17;97892.23;;;14.96;96.44
62864;BME280;48954;59.950;11.014;2023-09-18T23:55:58;97888.71;;;14.98;96.37
62864;BME280;48954;59.950;11.014;2023-09-18T23:58:34;97888.63;;;14.98;96.37
